Time;durP1;ratioP1;P1;durP2;ratioP2;P2;SDS_P1;SDS_P2;PMS_P1;PMS_P2;Temp;Humidity;BMP_temperature;BMP_pressure;BME280_temperature;BME280_humidity;BME280_pressure;Samples;Min_cycle;Max_cycle;Signal;HPM_P1;HPM_P2
2022/11/18 00:02:12;;;;;;;17.30;9.60;;;0.50;1.00;;;;;;10334691;28;20210;-88
2022/11/18 00:07:34;;;;;;;18.17;10.60;;;0.40;1.00;;;;;;10364028;28;20255;-83
2022/11/18 00:18:37;;;;;;;13.57;8.90;;;0.40;1.00;;;;;;10398910;28;20206;-79
2022/11/18 00:23:58;;;;;;;15.07;9.70;;;0.30;99.90;;;;;;10387881;28;20203;-78
2022/11/18 00:29:21;;;;;;;12.57;8.40;;;0.30;99.90;;;;;;10374267;28;20219;-79
2022/11/18 00:34:42;;;;;;;11.30;7.83;;;0.30;99.90;;;;;;10387242;28;20427;-86
2022/11/18 00:40:04;;;;;;;14.10;7.40;;;0.30;99.90;;;;;;10387313;28;20195;-78
2022/11/18 00:45:25;;;;;;;11.10;7.17;;;0.40;99.90;;;;;;10387283;28;20261;-79
2022/11/18 00:50:48;;;;;;;12.63;6.83;;;0.40;99.90;;;;;;10386812;28;20223;-84
2022/11/18 00:56:10;;;;;;;9.47;6.63;;;0.40;8.40;;;;;;10387568;28;20226;-88
2022/11/18 01:01:31;;;;;;;10.73;6.80;;;0.40;1.00;;;;;;10349274;28;20250;-79
2022/11/18 01:06:53;;;;;;;10.60;6.53;;;0.50;1.00;;;;;;10373980;28;20262;-79
2022/11/18 01:17:54;;;;;;;11.97;7.10;;;0.50;1.00;;;;;;10399230;28;20203;-85
2022/11/18 01:23:16;;;;;;;10.30;5.37;;;0.50;1.00;;;;;;10400976;28;20418;-79
2022/11/18 01:28:39;;;;;;;6.57;3.90;;;0.50;99.90;;;;;;10399384;28;20199;-88
2022/11/18 01:34:00;;;;;;;4.00;2.97;;;0.50;99.90;;;;;;10399404;28;20243;-89
2022/11/18 01:39:21;;;;;;;5.80;3.63;;;0.40;1.00;;;;;;10400991;28;20206;-87
2022/11/18 01:45:08;;;;;;;4.93;3.00;;;0.30;99.90;;;;;;10372744;28;20199;-79
2022/11/18 01:50:31;;;;;;;5.43;3.10;;;0.10;1.00;;;;;;10398895;28;20194;-90
2022/11/18 01:55:55;;;;;;;6.87;4.23;;;0.10;1.00;;;;;;10398915;28;20187;-82
2022/11/18 02:01:16;;;;;;;9.33;4.07;;;0.00;1.00;;;;;;10370251;28;20195;-80
2022/11/18 02:06:37;;;;;;;4.60;3.00;;;0.00;72.20;;;;;;10383657;28;20234;-89
2022/11/18 02:11:58;;;;;;;5.43;3.10;;;-0.10;99.90;;;;;;10383678;28;20230;-82
2022/11/18 02:17:40;;;;;;;10.47;4.67;;;0.00;1.00;;;;;;10383598;28;20198;-79
2022/11/18 02:23:53;;;;;;;4.37;2.70;;;0.00;1.00;;;;;;10370241;28;20203;-79
2022/11/18 02:29:23;;;;;;;4.03;2.70;;;0.10;99.90;;;;;;10393159;28;20231;-83
2022/11/18 02:34:49;;;;;;;4.77;2.93;;;0.00;99.90;;;;;;10383112;28;20226;-89
2022/11/18 02:40:17;;;;;;;3.57;2.40;;;0.00;1.00;;;;;;10396759;28;20203;-88
2022/11/18 02:45:43;;;;;;;5.53;3.70;;;-0.10;1.00;;;;;;10396133;28;20385;-85
2022/11/18 02:51:08;;;;;;;6.87;4.00;;;-0.30;99.90;;;;;;10358114;28;20221;-81
2022/11/18 02:56:31;;;;;;;10.03;4.40;;;-0.30;1.00;;;;;;10357905;28;20209;-80
2022/11/18 03:01:52;;;;;;;6.33;3.93;;;-0.40;99.90;;;;;;10327896;28;20258;-79
2022/11/18 03:07:28;;;;;;;5.83;3.30;;;-0.40;99.90;;;;;;10356021;28;20279;-80
2022/11/18 03:13:09;;;;;;;7.77;3.90;;;-0.50;1.00;;;;;;10341124;28;20462;-90
2022/11/18 03:18:50;;;;;;;6.97;4.53;;;-0.40;1.00;;;;;;10384259;28;20195;-80
2022/11/18 03:24:24;;;;;;;9.80;5.10;;;-0.40;37.10;;;;;;10381489;28;20207;-83
2022/11/18 03:29:55;;;;;;;8.13;4.47;;;-0.40;39.10;;;;;;10367776;28;20224;-78
2022/11/18 03:35:29;;;;;;;7.10;4.60;;;-0.60;99.90;;;;;;10381145;28;20228;-86
2022/11/18 03:40:58;;;;;;;8.87;5.33;;;-0.60;1.00;;;;;;10394942;28;20257;-79
2022/11/18 03:46:24;;;;;;;9.97;4.90;;;-0.60;1.00;;;;;;10380676;28;20197;-78
2022/11/18 03:51:53;;;;;;;15.17;7.93;;;-0.70;99.90;;;;;;10367591;28;20588;-78
2022/11/18 03:57:31;;;;;;;14.00;7.93;;;-0.60;99.90;;;;;;10380868;28;20236;-85
2022/11/18 04:02:52;;;;;;;12.40;7.40;;;-0.60;1.00;;;;;;10393800;28;20521;-79
2022/11/18 04:08:26;;;;;;;13.87;7.40;;;-0.50;1.00;;;;;;10380872;28;20240;-88
2022/11/18 04:13:47;;;;;;;9.03;5.97;;;-0.50;1.00;;;;;;10394263;28;20213;-81
2022/11/18 04:19:08;;;;;;;11.80;5.53;;;-0.30;1.00;;;;;;10380115;28;20428;-81
2022/11/18 04:24:30;;;;;;;9.77;6.23;;;-0.30;1.00;;;;;;10369369;28;20184;-84
2022/11/18 04:29:52;;;;;;;12.43;7.63;;;-0.20;1.00;;;;;;10426556;28;20191;-80
2022/11/18 04:35:13;;;;;;;12.53;7.10;;;-0.20;1.00;;;;;;10391619;28;20236;-89
2022/11/18 04:40:35;;;;;;;9.83;6.17;;;-0.20;21.10;;;;;;10407318;28;20215;-78
2022/11/18 04:45:56;;;;;;;9.90;6.10;;;-0.10;20.40;;;;;;10420718;28;20179;-80
2022/11/18 04:51:17;;;;;;;9.47;5.40;;;0.00;88.90;;;;;;10397282;28;20430;-80
2022/11/18 04:56:39;;;;;;;11.03;7.07;;;0.10;1.00;;;;;;10400248;28;20210;-89
2022/11/18 05:02:03;;;;;;;11.33;7.13;;;0.00;1.00;;;;;;10373633;28;20210;-87
2022/11/18 05:07:25;;;;;;;9.90;6.50;;;0.00;1.00;;;;;;10401268;28;20543;-83
2022/11/18 05:12:49;;;;;;;13.23;8.00;;;0.00;70.90;;;;;;10385331;28;20233;-82
2022/11/18 05:18:10;;;;;;;16.07;8.43;;;0.10;24.50;;;;;;10385687;28;20231;-81
2022/11/18 05:23:31;;;;;;;15.90;8.37;;;0.10;38.80;;;;;;10400223;28;20423;-82
2022/11/18 05:28:52;;;;;;;14.53;8.33;;;0.20;1.00;;;;;;10385543;28;20399;-88
2022/11/18 05:34:14;;;;;;;13.00;8.60;;;0.20;1.00;;;;;;10399442;28;20249;-87
2022/11/18 05:39:35;;;;;;;12.33;7.70;;;0.20;1.00;;;;;;10389405;28;20204;-88
2022/11/18 05:44:56;;;;;;;16.73;10.37;;;0.30;1.00;;;;;;10398338;28;20216;-88
2022/11/18 05:50:18;;;;;;;16.10;9.33;;;0.20;1.00;;;;;;10371552;28;20203;-81
2022/11/18 05:55:57;;;;;;;21.43;11.63;;;0.30;1.00;;;;;;10397951;28;20240;-88
2022/11/18 06:01:24;;;;;;;21.00;12.40;;;0.30;1.00;;;;;;10370783;28;20210;-79
2022/11/18 06:06:48;;;;;;;18.80;10.77;;;0.40;99.90;;;;;;10398305;28;20285;-83
2022/11/18 06:12:15;;;;;;;18.33;9.47;;;0.40;1.00;;;;;;10384407;28;20475;-81
2022/11/18 06:17:52;;;;;;;18.10;9.00;;;0.40;99.90;;;;;;10369833;28;20212;-88
2022/11/18 06:23:14;;;;;;;21.27;9.60;;;0.40;1.00;;;;;;10383214;28;20203;-86
2022/11/18 06:28:35;;;;;;;21.93;9.80;;;0.50;1.00;;;;;;10385157;28;20219;-80
2022/11/18 06:33:56;;;;;;;22.83;9.03;;;0.50;99.90;;;;;;10370620;28;20227;-86
2022/11/18 06:39:36;;;;;;;15.50;7.67;;;0.50;1.00;;;;;;10374783;28;20252;-80
2022/11/18 06:44:57;;;;;;;25.97;11.07;;;0.40;1.00;;;;;;10401489;28;20204;-85
2022/11/18 06:50:18;;;;;;;28.93;12.13;;;0.40;1.00;;;;;;10385308;28;20194;-89
2022/11/18 06:55:40;;;;;;;21.03;10.20;;;0.40;99.90;;;;;;10385267;28;20240;-82
2022/11/18 07:01:16;;;;;;;24.00;12.33;;;0.50;99.90;;;;;;10404612;28;20192;-84
2022/11/18 07:06:38;;;;;;;28.73;18.00;;;0.50;1.00;;;;;;10404017;28;20262;-87
2022/11/18 07:11:59;;;;;;;32.97;21.60;;;0.60;99.90;;;;;;10382688;28;20253;-79
2022/11/18 07:17:20;;;;;;;31.00;18.33;;;0.60;99.90;;;;;;10406663;28;20203;-80
2022/11/18 07:22:41;;;;;;;37.83;18.60;;;0.70;1.00;;;;;;10381847;28;20209;-89
2022/11/18 07:28:03;;;;;;;35.73;17.50;;;0.80;1.00;;;;;;10395199;28;20358;-81
2022/11/18 07:33:24;;;;;;;27.33;13.47;;;0.80;1.00;;;;;;10381321;28;20243;-85
2022/11/18 07:38:46;;;;;;;24.63;11.00;;;0.90;99.90;;;;;;10396614;28;20369;-89
2022/11/18 07:44:10;;;;;;;31.53;13.10;;;0.90;99.90;;;;;;10397575;28;20227;-88
2022/11/18 07:49:32;;;;;;;26.90;12.20;;;1.00;99.90;;;;;;10368363;28;20498;-86
2022/11/18 07:54:53;;;;;;;16.67;8.57;;;1.10;99.90;;;;;;10370680;28;20231;-84
2022/11/18 08:00:15;;;;;;;12.20;6.90;;;1.00;99.90;;;;;;10396348;28;20196;-84
2022/11/18 08:05:36;;;;;;;9.00;5.13;;;1.00;44.10;;;;;;10384981;28;20430;-89
2022/11/18 08:11:00;;;;;;;14.07;6.87;;;1.00;1.00;;;;;;10354720;28;20238;-82
2022/11/18 08:16:23;;;;;;;14.50;7.47;;;1.00;1.00;;;;;;10372600;28;20200;-80
2022/11/18 08:21:44;;;;;;;10.57;5.57;;;1.00;1.00;;;;;;10357584;28;20546;-85
2022/11/18 08:27:05;;;;;;;20.67;10.27;;;1.00;1.00;;;;;;10383296;28;20231;-83
2022/11/18 08:32:33;;;;;;;18.57;9.50;;;1.10;1.00;;;;;;10395502;28;20232;-87
2022/11/18 08:37:54;;;;;;;17.93;8.23;;;1.20;1.00;;;;;;10371567;28;20205;-80
2022/11/18 08:43:18;;;;;;;9.87;5.20;;;1.30;1.00;;;;;;10380264;28;20281;-79
2022/11/18 08:48:39;;;;;;;9.80;5.13;;;1.40;1.00;;;;;;10368547;28;20514;-82
2022/11/18 08:54:01;;;;;;;19.40;10.90;;;1.30;1.00;;;;;;10382996;28;20250;-80
2022/11/18 08:59:22;;;;;;;16.77;7.27;;;1.40;1.00;;;;;;10359901;28;20453;-78
2022/11/18 09:04:45;;;;;;;13.17;7.10;;;1.30;99.90;;;;;;10378226;28;20211;-81
2022/11/18 09:10:06;;;;;;;19.67;8.43;;;1.10;99.90;;;;;;10377396;28;20426;-87
2022/11/18 09:15:28;;;;;;;14.13;6.80;;;1.00;99.90;;;;;;10367230;28;20239;-82
2022/11/18 09:20:58;;;;;;;10.67;6.77;;;1.00;99.90;;;;;;10368301;28;20253;-84
2022/11/18 09:26:22;;;;;;;11.50;5.43;;;1.00;99.90;;;;;;10364382;28;20210;-83
2022/11/18 09:31:43;;;;;;;9.13;4.70;;;1.00;99.90;;;;;;10394205;28;20207;-81
2022/11/18 09:37:05;;;;;;;10.73;5.23;;;1.30;1.00;;;;;;10408994;28;20205;-82
2022/11/18 09:42:48;;;;;;;12.13;6.23;;;1.30;1.00;;;;;;10394157;28;20207;-81
2022/11/18 09:48:18;;;;;;;13.57;6.30;;;1.20;1.00;;;;;;10381050;28;20203;-83
2022/11/18 09:53:43;;;;;;;13.47;5.77;;;1.20;1.00;;;;;;10350557;28;20237;-82
2022/11/18 09:59:05;;;;;;;11.23;6.17;;;1.20;99.90;;;;;;10382728;28;20281;-84
2022/11/18 10:04:28;;;;;;;17.63;8.83;;;1.20;1.00;;;;;;10363681;28;20393;-87
2022/11/18 10:09:53;;;;;;;5.40;3.40;;;1.30;99.90;;;;;;10367383;28;20234;-85
2022/11/18 10:15:47;;;;;;;8.00;3.90;;;1.30;99.90;;;;;;10421039;28;20218;-82
2022/11/18 10:21:30;;;;;;;12.77;5.00;;;1.60;99.90;;;;;;10372584;28;20208;-81
2022/11/18 10:26:59;;;;;;;9.57;3.43;;;2.00;1.00;;;;;;10384449;28;20191;-85
2022/11/18 10:32:21;;;;;;;7.47;2.60;;;2.30;99.90;;;;;;10344443;28;20311;-82
2022/11/18 10:37:42;;;;;;;6.03;2.77;;;2.50;99.90;;;;;;10365284;28;20200;-87
2022/11/18 10:43:48;;;;;;;10.17;5.00;;;2.50;99.90;;;;;;10378756;28;20205;-80
2022/11/18 10:49:09;;;;;;;4.67;3.07;;;2.40;98.60;;;;;;10393455;28;20201;-83
2022/11/18 10:54:30;;;;;;;9.63;4.60;;;2.40;2.10;;;;;;10378111;28;20225;-86
2022/11/18 10:59:56;;;;;;;8.70;4.07;;;3.20;97.10;;;;;;10390080;28;20211;-81
2022/11/18 11:05:22;;;;;;;2.90;2.10;;;5.80;1.00;;;;;;10377914;28;20299;-82
2022/11/18 11:11:03;;;;;;;12.70;5.30;;;;;;;;;;10363743;28;20199;-86
2022/11/18 11:16:27;;;;;;;9.63;4.73;;;9.40;1.00;;;;;;10363740;28;20253;-81
2022/11/18 11:21:49;;;;;;;8.10;4.37;;;9.10;1.00;;;;;;10391103;28;20505;-84
2022/11/18 11:27:23;;;;;;;13.20;6.27;;;7.90;1.00;;;;;;10398264;28;20196;-85
2022/11/18 11:33:19;;;;;;;4.67;3.27;;;6.40;1.00;;;;;;10395205;28;20220;-80
2022/11/18 11:38:49;;;;;;;7.57;3.20;;;5.10;1.00;;;;;;10346533;28;20184;-82
2022/11/18 11:44:46;;;;;;;3.33;2.80;;;4.20;14.20;;;;;;10370664;28;20210;-80
2022/11/18 11:50:22;;;;;;;3.37;2.10;;;3.40;1.00;;;;;;10247653;28;20208;-90
2022/11/18 11:56:00;;;;;;;4.13;1.63;;;3.50;1.00;;;;;;10248135;29;20239;-83
2022/11/18 12:01:43;;;;;;;2.33;1.80;;;3.70;99.90;;;;;;10285181;28;20215;-81
2022/11/18 12:07:11;;;;;;;2.70;1.83;;;3.50;1.00;;;;;;10220720;29;20593;-83
2022/11/18 12:13:07;;;;;;;5.00;3.23;;;3.40;1.00;;;;;;10262038;28;20251;-89
2022/11/18 12:18:44;;;;;;;3.63;2.30;;;3.10;1.00;;;;;;10275058;28;20218;-81
2022/11/18 12:24:31;;;;;;;9.10;3.60;;;3.10;1.00;;;;;;10269423;28;20206;-86
2022/11/18 12:29:56;;;;;;;28.23;9.60;;;2.90;1.00;;;;;;10414683;28;20250;-85
2022/11/18 12:35:27;;;;;;;23.20;10.07;;;2.70;1.00;;;;;;10394230;28;20454;-84
2022/11/18 12:40:48;;;;;;;8.03;4.37;;;2.60;1.00;;;;;;10383179;28;20238;-82
2022/11/18 12:46:37;;;;;;;6.50;3.30;;;2.60;1.00;;;;;;10377534;28;20200;-81
2022/11/18 12:52:02;;;;;;;10.90;4.30;;;2.90;1.00;;;;;;10368740;28;20201;-90
2022/11/18 12:57:33;;;;;;;28.33;11.27;;;2.80;1.00;;;;;;10383606;28;20224;-81
2022/11/18 13:03:00;;;;;;;22.30;9.27;;;2.70;1.00;;;;;;10400899;28;20208;-84
2022/11/18 13:08:22;;;;;;;14.93;8.43;;;2.70;1.00;;;;;;10367770;28;20334;-87
2022/11/18 13:13:44;;;;;;;20.87;8.73;;;2.60;1.00;;;;;;10369220;28;20606;-80
2022/11/18 13:19:06;;;;;;;18.37;8.10;;;2.60;1.00;;;;;;10369756;28;20201;-79
2022/11/18 13:24:27;;;;;;;26.47;10.67;;;2.60;1.00;;;;;;10352140;28;20217;-83
2022/11/18 13:29:59;;;;;;;30.33;12.27;;;2.60;1.00;;;;;;10383434;28;20196;-80
2022/11/18 13:35:23;;;;;;;31.77;13.70;;;2.50;1.00;;;;;;10366403;28;20535;-80
2022/11/18 13:41:05;;;;;;;20.47;9.37;;;2.30;1.00;;;;;;10396120;28;20496;-82
2022/11/18 13:46:27;;;;;;;22.30;9.90;;;2.10;1.00;;;;;;10370833;28;20192;-82
2022/11/18 13:51:50;;;;;;;15.77;7.73;;;2.00;1.00;;;;;;10333896;28;20197;-82
2022/11/18 13:57:21;;;;;;;17.87;8.37;;;2.20;1.00;;;;;;10360661;28;20209;-88
2022/11/18 14:02:45;;;;;;;21.07;10.60;;;2.20;1.00;;;;;;10419084;28;20268;-87
2022/11/18 14:08:24;;;;;;;24.93;12.87;;;2.00;1.00;;;;;;10350890;28;20272;-82
2022/11/18 14:13:53;;;;;;;20.87;9.30;;;1.90;1.00;;;;;;10380031;28;20239;-84
2022/11/18 14:19:44;;;;;;;40.27;14.63;;;1.80;1.00;;;;;;10369302;28;20399;-81
2022/11/18 14:25:23;;;;;;;22.03;8.57;;;1.60;1.00;;;;;;10358150;28;20229;-80
2022/11/18 14:31:16;;;;;;;15.17;7.53;;;1.50;1.00;;;;;;10418131;28;20196;-78
2022/11/18 14:36:37;;;;;;;16.77;9.13;;;1.30;1.00;;;;;;10357562;28;20314;-85
2022/11/18 14:42:05;;;;;;;19.03;8.70;;;1.30;1.00;;;;;;10404480;28;20208;-79
2022/11/18 14:47:29;;;;;;;19.67;11.10;;;1.30;1.00;;;;;;10399064;28;20189;-88
2022/11/18 14:52:50;;;;;;;16.93;8.73;;;1.10;1.00;;;;;;10395248;28;20542;-82
2022/11/18 14:58:13;;;;;;;20.60;8.27;;;1.20;1.00;;;;;;10395595;28;20501;-81
2022/11/18 15:03:35;;;;;;;13.47;6.10;;;1.20;1.00;;;;;;10381711;28;20562;-82
2022/11/18 15:08:56;;;;;;;10.67;6.23;;;1.20;1.00;;;;;;10359357;28;20243;-80
2022/11/18 15:14:17;;;;;;;10.73;6.77;;;1.10;1.00;;;;;;10387034;28;20238;-80
2022/11/18 15:19:40;;;;;;;22.80;9.70;;;1.10;1.00;;;;;;10371764;28;20200;-81
2022/11/18 15:25:01;;;;;;;18.63;9.30;;;1.10;1.00;;;;;;10347705;28;20520;-81
2022/11/18 15:30:24;;;;;;;9.83;5.83;;;1.10;1.00;;;;;;10389201;28;20210;-86
2022/11/18 15:35:47;;;;;;;34.37;12.73;;;1.10;1.00;;;;;;10360005;28;20336;-83
2022/11/18 15:41:17;;;;;;;20.07;8.80;;;1.00;1.00;;;;;;10381401;28;20244;-81
2022/11/18 15:46:38;;;;;;;9.93;6.10;;;1.00;1.00;;;;;;10341000;28;20196;-79
2022/11/18 15:52:00;;;;;;;14.77;7.00;;;0.90;1.00;;;;;;10357573;28;20286;-81
2022/11/18 15:57:21;;;;;;;30.90;14.53;;;0.70;1.00;;;;;;10392891;23;20312;-84
2022/11/18 16:02:43;;;;;;;15.97;9.67;;;0.70;1.00;;;;;;10314252;28;20204;-80
2022/11/18 16:08:05;;;;;;;9.67;5.80;;;0.60;1.00;;;;;;10340487;28;20188;-83
2022/11/18 16:13:26;;;;;;;13.50;8.85;;;0.50;1.00;;;;;;10344962;28;20463;-82
2022/11/18 16:18:48;;;;;;;14.33;8.10;;;0.50;1.00;;;;;;10311551;28;20262;-78
2022/11/18 16:24:16;;;;;;;19.17;9.53;;;0.40;1.00;;;;;;10326949;28;20231;-80
2022/11/18 16:29:37;;;;;;;17.00;8.40;;;0.50;1.00;;;;;;10373074;28;20490;-83
2022/11/18 16:34:58;;;;;;;27.43;13.53;;;0.50;1.00;;;;;;10343561;28;20224;-77
2022/11/18 16:40:21;;;;;;;26.57;13.50;;;0.60;1.00;;;;;;10317652;28;20192;-86
2022/11/18 16:45:52;;;;;;;42.80;19.10;;;0.70;1.00;;;;;;10318869;28;20229;-86
2022/11/18 16:51:19;;;;;;;45.30;19.10;;;0.70;1.00;;;;;;10333803;28;20228;-88
2022/11/18 16:56:40;;;;;;;32.87;15.57;;;0.60;1.00;;;;;;10332408;28;20221;-84
2022/11/18 17:02:02;;;;;;;40.47;18.73;;;0.50;1.00;;;;;;10368168;28;20284;-81
2022/11/18 17:07:23;;;;;;;39.27;16.67;;;0.40;1.00;;;;;;10380311;28;20199;-80
2022/11/18 17:12:46;;;;;;;39.33;16.03;;;0.30;1.00;;;;;;10387475;28;20200;-78
2022/11/18 17:18:07;;;;;;;30.57;12.77;;;0.30;1.00;;;;;;10341746;28;20298;-78
2022/11/18 17:23:32;;;;;;;29.33;12.37;;;0.30;1.00;;;;;;10348163;28;20199;-86
2022/11/18 17:28:56;;;;;;;36.07;15.87;;;0.30;1.00;;;;;;10343288;28;20210;-83
2022/11/18 17:34:18;;;;;;;41.37;21.13;;;0.40;2.70;;;;;;10348795;28;20268;-79
2022/11/18 17:39:39;;;;;;;39.70;19.40;;;0.40;1.00;;;;;;10317759;28;20272;-83
2022/11/18 17:45:01;;;;;;;40.77;20.70;;;0.30;1.00;;;;;;10348518;28;20258;-77
2022/11/18 17:50:23;;;;;;;82.73;33.90;;;0.30;1.00;;;;;;10322594;28;20279;-82
2022/11/18 17:55:44;;;;;;;74.77;32.07;;;0.20;9.80;;;;;;10327844;28;20241;-84
2022/11/18 18:01:16;;;;;;;103.57;44.27;;;0.20;99.90;;;;;;10258706;28;1272730;-85
2022/11/18 18:06:37;;;;;;;141.27;56.17;;;0.30;99.90;;;;;;10333101;28;20268;-78
2022/11/18 18:14:10;;;;;;;135.90;57.07;;;0.30;99.90;;;;;;10342547;28;20288;-78
2022/11/18 18:17:40;;;;;;;79.93;37.97;;;0.30;1.00;;;;;;10331887;28;20207;-79
2022/11/18 18:23:02;;;;;;;63.13;23.30;;;0.30;99.90;;;;;;10331290;28;20201;-78
2022/11/18 18:28:23;;;;;;;34.43;17.17;;;0.30;99.90;;;;;;10361659;28;20278;-80
2022/11/18 18:33:44;;;;;;;53.37;25.50;;;0.20;99.90;;;;;;10370045;28;20218;-80
2022/11/18 18:39:06;;;;;;;69.30;32.10;;;0.10;1.00;;;;;;10360945;28;20478;-78
2022/11/18 18:46:27;;;;;;;104.63;45.60;;;0.00;1.00;;;;;;10316412;28;20203;-78
2022/11/18 18:50:08;;;;;;;116.87;51.57;;;-0.10;1.00;;;;;;10328563;28;20200;-79
2022/11/18 18:55:29;;;;;;;117.37;49.93;;;0.00;1.00;;;;;;10335406;28;20290;-87
2022/11/18 19:00:52;;;;;;;123.87;56.20;;;0.00;1.00;;;;;;10372578;28;20263;-85
2022/11/18 19:06:26;;;;;;;190.47;81.13;;;-0.10;1.00;;;;;;10390499;28;20216;-87
2022/11/18 19:17:48;;;;;;;131.50;61.33;;;-0.20;91.40;;;;;;10401863;28;20195;-79
2022/11/18 19:23:12;;;;;;;112.07;51.27;;;-0.30;1.00;;;;;;10370014;28;20207;-84
2022/11/18 19:28:33;;;;;;;120.10;52.60;;;-0.40;1.00;;;;;;10368393;28;20367;-86
2022/11/18 19:33:54;;;;;;;151.00;64.97;;;-0.50;96.60;;;;;;10365924;28;20226;-87
2022/11/18 19:39:16;;;;;;;152.53;61.77;;;-0.60;1.00;;;;;;10345156;28;20192;-86
2022/11/18 19:44:38;;;;;;;148.90;60.60;;;-0.60;1.00;;;;;;10332400;28;20263;-87
2022/11/18 19:50:00;;;;;;;136.53;60.07;;;-0.70;99.90;;;;;;10334627;28;20331;-87
2022/11/18 19:55:21;;;;;;;137.70;59.93;;;-0.70;1.00;;;;;;10327285;28;20223;-84
2022/11/18 20:00:43;;;;;;;154.47;64.00;;;-0.60;1.00;;;;;;10349991;28;20254;-81
2022/11/18 20:06:05;;;;;;;132.93;54.30;;;-0.60;99.90;;;;;;10373522;28;20203;-80
2022/11/18 20:11:27;;;;;;;107.27;48.53;;;-0.60;99.90;;;;;;10374354;28;20245;-80
2022/11/18 20:16:50;;;;;;;75.43;36.23;;;-0.70;1.00;;;;;;10340673;28;20238;-87
2022/11/18 20:22:11;;;;;;;83.33;39.27;;;-0.60;1.00;;;;;;10363751;28;20199;-80
2022/11/18 20:27:32;;;;;;;86.73;39.90;;;-0.60;99.90;;;;;;10325352;28;20206;-85
2022/11/18 20:32:53;;;;;;;67.53;33.10;;;-0.60;34.70;;;;;;10338706;28;20195;-86
2022/11/18 20:38:14;;;;;;;67.13;32.27;;;-0.60;16.90;;;;;;10322072;28;20280;-82
2022/11/18 20:43:39;;;;;;;86.57;39.33;;;-0.60;99.90;;;;;;10322805;28;20208;-86
2022/11/18 20:49:01;;;;;;;110.07;48.23;;;-0.60;1.00;;;;;;10322637;28;20234;-81
2022/11/18 20:54:22;;;;;;;97.60;43.43;;;-0.70;1.00;;;;;;10307023;28;20454;-85
2022/11/18 20:59:43;;;;;;;119.93;50.00;;;-0.60;1.00;;;;;;10307115;28;20267;-84
2022/11/18 21:05:05;;;;;;;112.57;51.93;;;-0.60;10.20;;;;;;10293605;28;20513;-78
2022/11/18 21:10:26;;;;;;;97.33;46.47;;;-0.50;99.90;;;;;;10266124;28;20208;-86
2022/11/18 21:15:47;;;;;;;75.70;38.73;;;-0.50;99.90;;;;;;10280939;28;20443;-86
2022/11/18 21:26:50;;;;;;;74.53;36.57;;;-0.60;1.00;;;;;;10322595;28;20272;-80
2022/11/18 21:32:11;;;;;;;67.37;34.37;;;-0.70;22.30;;;;;;10345723;28;20443;-78
2022/11/18 21:37:33;;;;;;;67.17;32.10;;;-0.80;30.40;;;;;;10331315;28;20331;-86
2022/11/18 21:42:54;;;;;;;66.00;32.80;;;-0.80;83.90;;;;;;10331606;28;20225;-77
2022/11/18 21:48:15;;;;;;;77.53;35.77;;;-0.80;1.00;;;;;;10345005;28;20221;-81
2022/11/18 21:53:37;;;;;;;102.87;44.53;;;-0.70;1.00;;;;;;10344619;28;20227;-87
2022/11/18 21:58:59;;;;;;;103.67;47.07;;;-0.80;99.90;;;;;;10344975;28;20244;-83
2022/11/18 22:10:01;;;;;;;111.80;52.77;;;-1.00;99.90;;;;;;10291161;28;20208;-79
2022/11/18 22:15:23;;;;;;;112.50;51.10;;;-1.10;1.00;;;;;;10318470;28;20228;-86
2022/11/18 22:20:44;;;;;;;113.93;54.83;;;-1.10;99.90;;;;;;10323527;28;20271;-79
2022/11/18 22:26:17;;;;;;;128.70;52.77;;;-1.10;1.00;;;;;;10343536;28;20222;-82
2022/11/18 22:31:38;;;;;;;131.77;53.03;;;-1.00;99.90;;;;;;10288059;28;20200;-78
2022/11/18 22:36:59;;;;;;;103.73;46.90;;;-1.00;99.90;;;;;;10348648;28;20223;-82
2022/11/18 22:48:01;;;;;;;129.93;56.83;;;-1.00;99.90;;;;;;10327457;28;20204;-80
2022/11/18 22:53:22;;;;;;;117.10;52.33;;;-1.00;99.90;;;;;;10357310;28;20193;-78
2022/11/18 22:58:43;;;;;;;121.27;55.40;;;-0.90;99.90;;;;;;10353770;28;20270;-78
2022/11/18 23:04:04;;;;;;;117.67;54.93;;;-0.90;1.00;;;;;;10358308;28;20256;-85
2022/11/18 23:09:25;;;;;;;129.50;57.50;;;-0.90;1.00;;;;;;10325966;28;20210;-83
2022/11/18 23:14:47;;;;;;;129.87;60.50;;;-0.90;1.00;;;;;;10325432;28;20310;-82
2022/11/18 23:20:08;;;;;;;152.33;67.87;;;-0.90;1.00;;;;;;10327872;28;20497;-84
2022/11/18 23:25:30;;;;;;;161.97;66.43;;;-0.90;1.00;;;;;;10311714;28;20389;-78
2022/11/18 23:30:51;;;;;;;182.53;69.67;;;-0.90;15.00;;;;;;10348116;28;20228;-82
2022/11/18 23:36:15;;;;;;;140.57;56.70;;;-0.90;93.20;;;;;;10326307;28;20258;-85
2022/11/18 23:41:36;;;;;;;122.40;49.87;;;-1.00;99.90;;;;;;10311283;28;20265;-84
2022/11/18 23:46:58;;;;;;;145.13;57.80;;;-1.10;99.90;;;;;;10311914;28;20397;-83
2022/11/18 23:52:19;;;;;;;129.40;54.50;;;-1.30;99.90;;;;;;10324679;28;20254;-80
2022/11/18 23:57:40;;;;;;;123.43;50.23;;;-1.50;24.20;;;;;;10323644;28;20251;-79
